Pauline — LG7923 — position and weather

sailwx.info

Track history (hours):
 
Tides and Currents Weather Stations Pressure Air Temp Water Temp Dewpoint Dewpoint Depression Visibility Wind Speed Wind Dir Waves Ship Positions

Pauline

Last reported at 2018-Apr-23 02:55 UTC. Time now 2018-May-20 14:11 UTC.
Position N 70°43' E 023°34'.
Warning: this ship's position is 27 days out of date.

Length 15 m; draft 3.8 m.

Type: Fishing. MMSI: 257636600.

Date/timePositionNaut miles runAvg speedWind from/ knotsBaromVisibWave heightAir tempDewpointWater temp
2018-Apr-23 02:55N 70°43' E 023°34'3 7.2
2018-Apr-23 02:30N 70°41' E 023°28'6 7.0
2018-Apr-23 01:40N 70°37' E 023°16'1 7.1
2018-Apr-23 01:30N 70°36' E 023°14'143 6.6
2018-Apr-22 04:00N 69°08' E 017°47'4 7.1
2018-Apr-22 03:30N 69°07' E 017°37'116 6.6
2018-Apr-21 09:51N 67°34' E 014°30'3 7.3
2018-Apr-21 09:30N 67°31' E 014°30'4 7.1
2018-Apr-21 09:00N 67°28' E 014°28'4 7.1
2018-Apr-21 08:30N 67°24' E 014°27'4 7.2
2018-Apr-21 08:00N 67°21' E 014°22'4 7.1
2018-Apr-21 07:30N 67°18' E 014°16'4 7.4
2018-Apr-21 07:00N 67°15' E 014°11'4 7.6
2018-Apr-21 06:30N 67°12' E 014°06'4 7.6
2018-Apr-21 06:00N 67°08' E 014°02'4 7.5
2018-Apr-21 05:30N 67°05' E 013°56'4 7.2
2018-Apr-21 04:58N 67°02' E 013°50'3 7.1
2018-Apr-21 04:30N 67°01' E 013°43'4 7.2
2018-Apr-21 04:00N 66°59' E 013°35'29 7.1
2018-Apr-20 23:54N 66°33' E 013°01'5 7.1
2018-Apr-20 23:13N 66°28' E 012°59'2 7.7
2018-Apr-20 23:00N 66°26' E 012°59'70 7.3
2018-Apr-20 13:19N 65°20' E 012°02'2 7.5
2018-Apr-20 13:00N 65°18' E 011°59'4 7.4
2018-Apr-20 12:30N 65°14' E 011°56'4 7.1
2018-Apr-20 11:59N 65°11' E 011°54'4 7.2
2018-Apr-20 11:29N 65°08' E 011°50'4 7.7
2018-Apr-20 11:00N 65°04' E 011°46'4 7.6
2018-Apr-20 10:30N 65°01' E 011°41'4 7.1
2018-Apr-20 10:00N 64°59' E 011°35'4 7.3
2018-Apr-20 09:30N 64°57' E 011°28'4 7.3
2018-Apr-20 09:00N 64°54' E 011°21'4 7.2
2018-Apr-20 08:30N 64°52' E 011°16'4 7.1
2018-Apr-20 08:00N 64°49' E 011°09'81 6.9
2018-Apr-19 20:17N 63°44' E 009°18'2 6.9
2018-Apr-19 19:57N 63°42' E 009°16'3 6.9
2018-Apr-19 19:28N 63°38' E 009°16'7 6.8
2018-Apr-19 18:30N 63°32' E 009°12'26 7.3
2018-Apr-19 14:54N 63°20' E 008°20'3 7.2
2018-Apr-19 14:26N 63°18' E 008°15'3 7.4
2018-Apr-19 14:00N 63°16' E 008°09'4 7.5
2018-Apr-19 13:30N 63°14' E 008°02'3 7.0
2018-Apr-19 13:00N 63°12' E 007°56'4 7.3
2018-Apr-19 12:30N 63°09' E 007°50'4 7.0
2018-Apr-19 12:00N 63°07' E 007°45'1 1.0
2018-Apr-19 11:30N 63°06' E 007°44'0 0.0
2018-Apr-19 11:00N 63°06' E 007°44'0 0.0
2018-Apr-19 10:30N 63°06' E 007°44'0 0.0
2018-Apr-19 10:00N 63°06' E 007°44'0 0.0
2018-Apr-19 09:30N 63°06' E 007°44'0 0.0
2018-Apr-19 09:00N 63°06' E 007°44'0 0.0
2018-Apr-19 08:28N 63°06' E 007°44'0 0.0
2018-Apr-19 08:00N 63°06' E 007°44'0 0.0
2018-Apr-19 07:30N 63°06' E 007°44'0 0.0
2018-Apr-19 07:00N 63°06' E 007°44'0 0.0
2018-Apr-19 06:30N 63°06' E 007°44'0 0.0
2018-Apr-19 05:59N 63°06' E 007°44'0 0.0
2018-Apr-19 05:29N 63°06' E 007°44'0 0.0
2018-Apr-19 04:59N 63°06' E 007°44'0 0.0
2018-Apr-19 04:28N 63°06' E 007°44'0 0.0
2018-Apr-19 04:00N 63°06' E 007°44'0 0.0
2018-Apr-19 03:30N 63°06' E 007°44'0 0.0
2018-Apr-19 03:00N 63°06' E 007°44'0 0.0
2018-Apr-19 02:30N 63°06' E 007°44'0 0.0
2018-Apr-19 02:00N 63°06' E 007°44'0 0.0
2018-Apr-19 01:30N 63°06' E 007°44'0 0.0
2018-Apr-19 00:59N 63°06' E 007°44'0 0.0
2018-Apr-19 00:29N 63°06' E 007°44'0 0.0
2018-Apr-18 23:59N 63°06' E 007°44'0 0.0
2018-Apr-18 23:30N 63°06' E 007°44'0 0.0
2018-Apr-18 22:57N 63°06' E 007°44'0 0.0
2018-Apr-18 22:30N 63°06' E 007°44'0 0.0
2018-Apr-18 22:00N 63°06' E 007°44'0 0.0
2018-Apr-18 21:30N 63°06' E 007°44'0 0.0
2018-Apr-18 21:00N 63°06' E 007°44'0 0.0
2018-Apr-18 20:30N 63°06' E 007°44'0 0.0
2018-Apr-18 20:00N 63°06' E 007°44'0 0.0
2018-Apr-18 19:30N 63°06' E 007°44'0 0.0
2018-Apr-18 19:00N 63°06' E 007°44'0 0.0
2018-Apr-18 18:29N 63°06' E 007°44'0 0.0
2018-Apr-18 18:00N 63°06' E 007°44'0 0.0
2018-Apr-18 17:30N 63°06' E 007°44'0 0.0
2018-Apr-18 16:59N 63°06' E 007°44'0 0.0
2018-Apr-18 16:28N 63°06' E 007°44'0 0.0
2018-Apr-18 16:00N 63°06' E 007°44'0 0.0
2018-Apr-18 15:30N 63°06' E 007°44'0 0.0
2018-Apr-18 15:00N 63°06' E 007°44'0 0.0
2018-Apr-18 14:30N 63°06' E 007°44'0 0.0
2018-Apr-18 14:00N 63°06' E 007°44'0 0.0
2018-Apr-18 13:30N 63°06' E 007°44'2 4.5
2018-Apr-18 13:00N 63°04' E 007°42'1 2.2
2018-Apr-18 12:30N 63°03' E 007°42'0 0.0
2018-Apr-18 12:00N 63°03' E 007°42'0 0.0
2018-Apr-18 11:30N 63°03' E 007°42'0 0.0
2018-Apr-18 11:00N 63°03' E 007°42'0 0.0
2018-Apr-18 10:30N 63°03' E 007°42'1 2.1
2018-Apr-18 10:00N 63°04' E 007°42'2 4.6
2018-Apr-18 09:30N 63°06' E 007°44'0 0.0
2018-Apr-18 09:00N 63°06' E 007°44'0 0.0
2018-Apr-18 08:30N 63°06' E 007°44'0 0.0
2018-Apr-18 07:59N 63°06' E 007°44'0 0.0
2018-Apr-18 07:30N 63°06' E 007°44'0 0.0
2018-Apr-18 07:00N 63°06' E 007°44'0 0.0
2018-Apr-18 06:30N 63°06' E 007°44'0 0.0
2018-Apr-18 06:00N 63°06' E 007°44'0 0.0
2018-Apr-18 05:30N 63°06' E 007°44'0 0.0
2018-Apr-18 05:00N 63°06' E 007°44'0 0.0
2018-Apr-18 04:30N 63°06' E 007°44'0 0.0
2018-Apr-18 03:58N 63°06' E 007°44'0 0.0
2018-Apr-18 03:30N 63°06' E 007°44'0 0.0
2018-Apr-18 03:00N 63°06' E 007°44'0 0.0
2018-Apr-18 02:30N 63°06' E 007°44'0 0.0
2018-Apr-18 01:59N 63°06' E 007°44'0 0.0
2018-Apr-18 01:30N 63°06' E 007°44'0 0.0
2018-Apr-18 01:00N 63°06' E 007°44'0 0.0
2018-Apr-18 00:27N 63°06' E 007°44'0 0.0
2018-Apr-18 00:00N 63°06' E 007°44'0 0.0
2018-Apr-17 23:30N 63°06' E 007°44'0 0.0
2018-Apr-17 22:58N 63°06' E 007°44'0 0.0
2018-Apr-17 22:30N 63°06' E 007°44'0 0.0
2018-Apr-17 21:58N 63°06' E 007°44'0 0.0
2018-Apr-17 21:30N 63°06' E 007°44'0 0.0
2018-Apr-17 21:00N 63°06' E 007°44'0 0.0
2018-Apr-17 20:30N 63°06' E 007°44'0 0.0
2018-Apr-17 20:00N 63°06' E 007°44'0 0.0
2018-Apr-17 19:30N 63°06' E 007°44'0 0.0
2018-Apr-17 19:00N 63°06' E 007°44'0 0.0
2018-Apr-17 18:30N 63°06' E 007°44'0 0.0
2018-Apr-17 18:00N 63°06' E 007°44'0 0.0
2018-Apr-17 17:30N 63°06' E 007°44'0 0.0
2018-Apr-17 17:00N 63°06' E 007°44'0 0.0
2018-Apr-17 16:30N 63°06' E 007°44'0 0.0
2018-Apr-17 15:59N 63°06' E 007°44'0 0.0
2018-Apr-17 15:29N 63°06' E 007°44'0 0.0
2018-Apr-17 15:00N 63°06' E 007°44'0 0.0
2018-Apr-17 14:30N 63°06' E 007°44'0 0.0
2018-Apr-17 14:00N 63°06' E 007°44'0 0.0
2018-Apr-17 13:30N 63°06' E 007°44'0 0.0
2018-Apr-17 13:00N 63°06' E 007°44'0 0.0
2018-Apr-17 12:30N 63°06' E 007°44'0 0.0
2018-Apr-17 12:00N 63°06' E 007°44'0 0.0
2018-Apr-17 11:30N 63°06' E 007°44'0 0.0
2018-Apr-17 11:00N 63°06' E 007°44'0 0.0
2018-Apr-17 10:30N 63°06' E 007°44'0 0.0
2018-Apr-17 10:00N 63°06' E 007°44'0 0.0
2018-Apr-17 09:30N 63°06' E 007°44'0 0.0
2018-Apr-17 09:00N 63°06' E 007°44'0 0.0
2018-Apr-17 08:30N 63°06' E 007°44'0 0.0
2018-Apr-17 08:00N 63°06' E 007°44'0 0.0
2018-Apr-17 07:30N 63°06' E 007°44'0 0.0
2018-Apr-17 06:59N 63°06' E 007°44'0 0.0
2018-Apr-17 06:30N 63°06' E 007°44'0 0.0
2018-Apr-17 05:59N 63°06' E 007°44'0 0.0
2018-Apr-17 05:30N 63°06' E 007°44'0 0.0
2018-Apr-17 05:00N 63°06' E 007°44'0 0.0
2018-Apr-17 04:30N 63°06' E 007°44'0 0.0
2018-Apr-17 04:00N 63°06' E 007°44'0 0.0
2018-Apr-17 03:30N 63°06' E 007°44'0 0.0
2018-Apr-17 03:00N 63°06' E 007°44'0 0.0
2018-Apr-17 02:30N 63°06' E 007°44'0 0.0
2018-Apr-17 02:00N 63°06' E 007°44'0 0.0
2018-Apr-17 01:30N 63°06' E 007°44'0 0.0
2018-Apr-17 00:59N 63°06' E 007°44'0 0.0
2018-Apr-17 00:30N 63°06' E 007°44'0 0.0
2018-Apr-16 23:57N 63°06' E 007°44'0 0.0
2018-Apr-16 23:30N 63°06' E 007°44'0 0.0
2018-Apr-16 23:00N 63°06' E 007°44'0 0.0
2018-Apr-16 22:30N 63°06' E 007°44'0 0.0
2018-Apr-16 22:00N 63°06' E 007°44'0 0.0
2018-Apr-16 21:28N 63°06' E 007°44'0 0.0
2018-Apr-16 21:00N 63°06' E 007°44'0 0.0
2018-Apr-16 20:30N 63°06' E 007°44'0 0.0
2018-Apr-16 20:00N 63°06' E 007°44'0 0.0
2018-Apr-16 19:30N 63°06' E 007°44'0 0.0
2018-Apr-16 18:59N 63°06' E 007°44'0 0.0
2018-Apr-16 18:30N 63°06' E 007°44'0 0.0
2018-Apr-16 18:00N 63°06' E 007°44'0 0.0
2018-Apr-16 17:30N 63°06' E 007°44'0 0.0
2018-Apr-16 16:57N 63°06' E 007°44'0 0.0
2018-Apr-16 16:26N 63°06' E 007°44'0 0.0
2018-Apr-16 16:00N 63°06' E 007°44'0 0.0
2018-Apr-16 15:30N 63°06' E 007°44'0 0.0
2018-Apr-16 15:00N 63°06' E 007°44'0 0.0
2018-Apr-16 14:29N 63°06' E 007°44'0 0.0
2018-Apr-16 14:00N 63°06' E 007°44'0 0.0
2018-Apr-16 13:30N 63°06' E 007°44'0 0.0
2018-Apr-16 13:00N 63°06' E 007°44'0 0.0
2018-Apr-16 12:30N 63°06' E 007°44'0 0.0
2018-Apr-16 12:00N 63°06' E 007°44'0 0.0
2018-Apr-16 11:30N 63°06' E 007°44'0 0.0
2018-Apr-16 10:59N 63°06' E 007°44'0 0.0
2018-Apr-16 10:28N 63°06' E 007°44'0 0.0
2018-Apr-16 10:00N 63°06' E 007°44'0 0.0
2018-Apr-16 09:29N 63°06' E 007°44'0 0.0
2018-Apr-16 09:00N 63°06' E 007°44'0 0.0
2018-Apr-16 08:30N 63°06' E 007°44'0 0.0
2018-Apr-16 08:00N 63°06' E 007°44'0 0.0
2018-Apr-16 07:30N 63°06' E 007°44'0 0.0
2018-Apr-16 07:00N 63°06' E 007°44'0 0.0
2018-Apr-16 06:30N 63°06' E 007°44'0 0.0
2018-Apr-16 06:00N 63°06' E 007°44'0 0.0
2018-Apr-16 05:30N 63°06' E 007°44'0 0.0
2018-Apr-16 05:00N 63°06' E 007°44'0 0.0
2018-Apr-16 04:30N 63°06' E 007°44'0 0.0
2018-Apr-16 04:00N 63°06' E 007°44'0 0.0
2018-Apr-16 03:30N 63°06' E 007°44'0 0.0
2018-Apr-16 03:00N 63°06' E 007°44'0 0.0
2018-Apr-16 02:28N 63°06' E 007°44'0 0.0
2018-Apr-16 02:00N 63°06' E 007°44'0 0.0
2018-Apr-16 01:30N 63°06' E 007°44'0 0.0
2018-Apr-16 01:00N 63°06' E 007°44'0 0.0
2018-Apr-16 00:30N 63°06' E 007°44'0 0.0
2018-Apr-16 00:00N 63°06' E 007°44'0 0.0
2018-Apr-15 23:30N 63°06' E 007°44'0 0.0
2018-Apr-15 23:00N 63°06' E 007°44'0 0.0
2018-Apr-15 22:30N 63°06' E 007°44'0 0.0
2018-Apr-15 22:00N 63°06' E 007°44'0 0.0
2018-Apr-15 21:30N 63°06' E 007°44'0 0.0
2018-Apr-15 21:00N 63°06' E 007°44'0 0.0
2018-Apr-15 20:30N 63°06' E 007°44'0 0.0
2018-Apr-15 20:00N 63°06' E 007°44'0 0.0
2018-Apr-15 19:30N 63°06' E 007°44'0 0.0
2018-Apr-15 19:00N 63°06' E 007°44'0 0.0
2018-Apr-15 18:30N 63°06' E 007°44'0 0.0
2018-Apr-15 18:00N 63°06' E 007°44'0 0.0
2018-Apr-15 17:30N 63°06' E 007°44'0 0.0
2018-Apr-15 17:00N 63°06' E 007°44'0 0.0
2018-Apr-15 16:27N 63°06' E 007°44'0 0.0
2018-Apr-15 16:00N 63°06' E 007°44'0 0.0
2018-Apr-15 15:30N 63°06' E 007°44'0 0.0
2018-Apr-15 15:00N 63°06' E 007°44'0 0.0
2018-Apr-15 14:30N 63°06' E 007°44'0 0.0
2018-Apr-15 14:00N 63°06' E 007°44'0 0.0
2018-Apr-15 13:30N 63°06' E 007°44'0 0.0
2018-Apr-15 13:00N 63°06' E 007°44'0 0.0
2018-Apr-15 12:30N 63°06' E 007°44'0 0.0
2018-Apr-15 12:00N 63°06' E 007°44'0 0.0
2018-Apr-15 11:30N 63°06' E 007°44'0 0.0
2018-Apr-15 10:59N 63°06' E 007°44'0 0.0
2018-Apr-15 10:28N 63°06' E 007°44'0 0.0
2018-Apr-15 10:00N 63°06' E 007°44'0 0.0
2018-Apr-15 09:30N 63°06' E 007°44'0 0.0
2018-Apr-15 09:00N 63°06' E 007°44'0 0.0
2018-Apr-15 08:30N 63°06' E 007°44'0 0.0
2018-Apr-15 07:57N 63°06' E 007°44'0 0.0
2018-Apr-15 07:30N 63°06' E 007°44'0 0.0
2018-Apr-15 07:00N 63°06' E 007°44'0 0.0
2018-Apr-15 06:30N 63°06' E 007°44'0 0.0
2018-Apr-15 05:59N 63°06' E 007°44'0 0.0
2018-Apr-15 05:30N 63°06' E 007°44'0 0.0
2018-Apr-15 05:00N 63°06' E 007°44'0 0.0
2018-Apr-15 04:29N 63°06' E 007°44'0 0.0
2018-Apr-15 03:58N 63°06' E 007°44'0 0.0
2018-Apr-15 03:30N 63°06' E 007°44'0 0.0
2018-Apr-15 02:58N 63°06' E 007°44'0 0.0
2018-Apr-15 02:30N 63°06' E 007°44'0 0.0
2018-Apr-15 02:00N 63°06' E 007°44'0 0.0
2018-Apr-15 01:30N 63°06' E 007°44'0 0.0
2018-Apr-15 01:00N 63°06' E 007°44'0 0.0
2018-Apr-15 00:30N 63°06' E 007°44'0 0.0
2018-Apr-15 00:00N 63°06' E 007°44'0 0.0
2018-Apr-14 23:30N 63°06' E 007°44'0 0.0
2018-Apr-14 23:00N 63°06' E 007°44'0 0.0
2018-Apr-14 22:30N 63°06' E 007°44'0 0.0
2018-Apr-14 22:00N 63°06' E 007°44'0 0.0
2018-Apr-14 21:30N 63°06' E 007°44'0 0.0
2018-Apr-14 20:59N 63°06' E 007°44'0 0.0
2018-Apr-14 20:30N 63°06' E 007°44'0 0.0
2018-Apr-14 20:00N 63°06' E 007°44'0 0.0
2018-Apr-14 19:30N 63°06' E 007°44'0 0.0
2018-Apr-14 19:00N 63°06' E 007°44'0 0.0
2018-Apr-14 18:30N 63°06' E 007°44'0 0.0
2018-Apr-14 18:00N 63°06' E 007°44'0 0.0
2018-Apr-14 17:30N 63°06' E 007°44'0 0.0
2018-Apr-14 17:00N 63°06' E 007°44'0 0.0
2018-Apr-14 16:30N 63°06' E 007°44'0 0.0
2018-Apr-14 15:59N 63°06' E 007°44'0 0.0
2018-Apr-14 15:30N 63°06' E 007°44'0 0.0
2018-Apr-14 15:00N 63°06' E 007°44'0 0.0
2018-Apr-14 14:30N 63°06' E 007°44'0 0.0
2018-Apr-14 14:00N 63°06' E 007°44'0 0.0
2018-Apr-14 13:30N 63°06' E 007°44'0 0.0
2018-Apr-14 13:00N 63°06' E 007°44'0 0.0
2018-Apr-14 12:30N 63°06' E 007°44'0 0.0
2018-Apr-14 11:59N 63°06' E 007°44'0 0.0
2018-Apr-14 11:30N 63°06' E 007°44'0 0.0
2018-Apr-14 11:00N 63°06' E 007°44'0 0.0
2018-Apr-14 10:28N 63°06' E 007°44'0 0.0
2018-Apr-14 10:00N 63°06' E 007°44'0 0.0
2018-Apr-14 09:30N 63°06' E 007°44'0 0.0
2018-Apr-14 09:00N 63°06' E 007°44'0 0.0
2018-Apr-14 08:30N 63°06' E 007°44'0 0.0
2018-Apr-14 08:00N 63°06' E 007°44'0 0.0
2018-Apr-14 07:30N 63°06' E 007°44'0 0.0
2018-Apr-14 07:00N 63°06' E 007°44'0 0.0
2018-Apr-14 06:30N 63°06' E 007°44'0 0.0
2018-Apr-14 06:00N 63°06' E 007°44'0 0.0
2018-Apr-14 05:30N 63°06' E 007°44'0 0.0
2018-Apr-14 05:00N 63°06' E 007°44'0 0.0
2018-Apr-14 04:27N 63°06' E 007°44'0 0.0
2018-Apr-14 03:59N 63°06' E 007°44'0 0.0
2018-Apr-14 03:30N 63°06' E 007°44'0 0.0
2018-Apr-14 03:00N 63°06' E 007°44'0 0.0
2018-Apr-14 02:30N 63°06' E 007°44'0 0.0
2018-Apr-14 01:59N 63°06' E 007°44'0 0.0
2018-Apr-14 01:27N 63°06' E 007°44'0 0.0
2018-Apr-14 01:00N 63°06' E 007°44'0 0.0
2018-Apr-14 00:30N 63°06' E 007°44'0 0.0
2018-Apr-14 00:00N 63°06' E 007°44'0 0.0
2018-Apr-13 23:30N 63°06' E 007°44'0 0.0
2018-Apr-13 23:00N 63°06' E 007°44'0 0.0
2018-Apr-13 22:30N 63°06' E 007°44'0 0.0
2018-Apr-13 22:00N 63°06' E 007°44'0 0.0
2018-Apr-13 21:30N 63°06' E 007°44'0 0.0
2018-Apr-13 21:00N 63°06' E 007°44'0 0.0
2018-Apr-13 20:30N 63°06' E 007°44'0 0.0
2018-Apr-13 20:00N 63°06' E 007°44'0 0.0
2018-Apr-13 19:30N 63°06' E 007°44'0 0.0
2018-Apr-13 19:00N 63°06' E 007°44'0 0.0
2018-Apr-13 18:30N 63°06' E 007°44'0 0.0
2018-Apr-13 18:00N 63°06' E 007°44'0 0.0
2018-Apr-13 17:30N 63°06' E 007°44'0 0.0
2018-Apr-13 16:59N 63°06' E 007°44'0 0.0
2018-Apr-13 16:28N 63°06' E 007°44'0 0.0
2018-Apr-13 16:00N 63°06' E 007°44'0 0.0
2018-Apr-13 15:30N 63°06' E 007°44'0 0.0
2018-Apr-13 15:00N 63°06' E 007°44'0 0.0
2018-Apr-13 14:30N 63°06' E 007°44'0 0.0
2018-Apr-13 14:00N 63°06' E 007°44'0 0.0
2018-Apr-13 13:30N 63°06' E 007°44'0 0.0
2018-Apr-13 13:00N 63°06' E 007°44'0 0.0
2018-Apr-13 12:28N 63°06' E 007°44'0 0.0
2018-Apr-13 12:00N 63°06' E 007°44'0 0.0
2018-Apr-13 11:30N 63°06' E 007°44'0 0.0
2018-Apr-13 11:00N 63°06' E 007°44'0 0.0
2018-Apr-13 10:25N 63°06' E 007°44'0 0.0
2018-Apr-13 10:00N 63°06' E 007°44'0 0.0
2018-Apr-13 09:30N 63°06' E 007°44'0 0.0
2018-Apr-13 09:00N 63°06' E 007°44'0 0.0
2018-Apr-13 08:30N 63°06' E 007°44'0 0.0
2018-Apr-13 08:00N 63°06' E 007°44'0 0.0
2018-Apr-13 07:30N 63°06' E 007°44'0 0.0
2018-Apr-13 07:00N 63°06' E 007°44'0 0.0
2018-Apr-13 06:30N 63°06' E 007°44'0 0.0
2018-Apr-13 06:00N 63°06' E 007°44'0 0.0
2018-Apr-13 05:28N 63°06' E 007°44'0 0.0
2018-Apr-13 05:00N 63°06' E 007°44'0 0.0
2018-Apr-13 04:30N 63°06' E 007°44'0 0.0
2018-Apr-13 04:00N 63°06' E 007°44'0 0.0
2018-Apr-13 03:29N 63°06' E 007°44'0 0.0
2018-Apr-13 03:00N 63°06' E 007°44'  
Track history (hours):
 
Tides and Currents Weather Stations Pressure Air Temp Water Temp Dewpoint Dewpoint Depression Visibility Wind Speed Wind Dir Waves Ship Positions

Pauline

Last reported at 2018-Apr-23 02:55 UTC. Time now 2018-May-20 14:11 UTC.
Position N 70°43' E 023°34'.
Warning: this ship's position is 27 days out of date.

Length 15 m; draft 3.8 m.

Type: Fishing. MMSI: 257636600.

Date/timePositionNaut miles runAvg speedWind from/ knotsBaromVisibWave heightAir tempDewpointWater temp
2018-Apr-23 02:55N 70°43' E 023°34'3 7.2
2018-Apr-23 02:30N 70°41' E 023°28'6 7.0
2018-Apr-23 01:40N 70°37' E 023°16'1 7.1
2018-Apr-23 01:30N 70°36' E 023°14'143 6.6
2018-Apr-22 04:00N 69°08' E 017°47'4 7.1
2018-Apr-22 03:30N 69°07' E 017°37'116 6.6
2018-Apr-21 09:51N 67°34' E 014°30'3 7.3
2018-Apr-21 09:30N 67°31' E 014°30'4 7.1
2018-Apr-21 09:00N 67°28' E 014°28'4 7.1
2018-Apr-21 08:30N 67°24' E 014°27'4 7.2
2018-Apr-21 08:00N 67°21' E 014°22'4 7.1
2018-Apr-21 07:30N 67°18' E 014°16'4 7.4
2018-Apr-21 07:00N 67°15' E 014°11'4 7.6
2018-Apr-21 06:30N 67°12' E 014°06'4 7.6
2018-Apr-21 06:00N 67°08' E 014°02'4 7.5
2018-Apr-21 05:30N 67°05' E 013°56'4 7.2
2018-Apr-21 04:58N 67°02' E 013°50'3 7.1
2018-Apr-21 04:30N 67°01' E 013°43'4 7.2
2018-Apr-21 04:00N 66°59' E 013°35'29 7.1
2018-Apr-20 23:54N 66°33' E 013°01'5 7.1
2018-Apr-20 23:13N 66°28' E 012°59'2 7.7
2018-Apr-20 23:00N 66°26' E 012°59'70 7.3
2018-Apr-20 13:19N 65°20' E 012°02'2 7.5
2018-Apr-20 13:00N 65°18' E 011°59'4 7.4
2018-Apr-20 12:30N 65°14' E 011°56'4 7.1
2018-Apr-20 11:59N 65°11' E 011°54'4 7.2
2018-Apr-20 11:29N 65°08' E 011°50'4 7.7
2018-Apr-20 11:00N 65°04' E 011°46'4 7.6
2018-Apr-20 10:30N 65°01' E 011°41'4 7.1
2018-Apr-20 10:00N 64°59' E 011°35'4 7.3
2018-Apr-20 09:30N 64°57' E 011°28'4 7.3
2018-Apr-20 09:00N 64°54' E 011°21'4 7.2
2018-Apr-20 08:30N 64°52' E 011°16'4 7.1
2018-Apr-20 08:00N 64°49' E 011°09'81 6.9
2018-Apr-19 20:17N 63°44' E 009°18'2 6.9
2018-Apr-19 19:57N 63°42' E 009°16'3 6.9
2018-Apr-19 19:28N 63°38' E 009°16'7 6.8
2018-Apr-19 18:30N 63°32' E 009°12'26 7.3
2018-Apr-19 14:54N 63°20' E 008°20'3 7.2
2018-Apr-19 14:26N 63°18' E 008°15'3 7.4
2018-Apr-19 14:00N 63°16' E 008°09'4 7.5
2018-Apr-19 13:30N 63°14' E 008°02'3 7.0
2018-Apr-19 13:00N 63°12' E 007°56'4 7.3
2018-Apr-19 12:30N 63°09' E 007°50'4 7.0
2018-Apr-19 12:00N 63°07' E 007°45'1 1.0
2018-Apr-19 11:30N 63°06' E 007°44'0 0.0
2018-Apr-19 11:00N 63°06' E 007°44'0 0.0
2018-Apr-19 10:30N 63°06' E 007°44'0 0.0
2018-Apr-19 10:00N 63°06' E 007°44'0 0.0
2018-Apr-19 09:30N 63°06' E 007°44'0 0.0
2018-Apr-19 09:00N 63°06' E 007°44'0 0.0
2018-Apr-19 08:28N 63°06' E 007°44'0 0.0
2018-Apr-19 08:00N 63°06' E 007°44'0 0.0
2018-Apr-19 07:30N 63°06' E 007°44'0 0.0
2018-Apr-19 07:00N 63°06' E 007°44'0 0.0
2018-Apr-19 06:30N 63°06' E 007°44'0 0.0
2018-Apr-19 05:59N 63°06' E 007°44'0 0.0
2018-Apr-19 05:29N 63°06' E 007°44'0 0.0
2018-Apr-19 04:59N 63°06' E 007°44'0 0.0
2018-Apr-19 04:28N 63°06' E 007°44'0 0.0
2018-Apr-19 04:00N 63°06' E 007°44'0 0.0
2018-Apr-19 03:30N 63°06' E 007°44'0 0.0
2018-Apr-19 03:00N 63°06' E 007°44'0 0.0
2018-Apr-19 02:30N 63°06' E 007°44'0 0.0
2018-Apr-19 02:00N 63°06' E 007°44'0 0.0
2018-Apr-19 01:30N 63°06' E 007°44'0 0.0
2018-Apr-19 00:59N 63°06' E 007°44'0 0.0
2018-Apr-19 00:29N 63°06' E 007°44'0 0.0
2018-Apr-18 23:59N 63°06' E 007°44'0 0.0
2018-Apr-18 23:30N 63°06' E 007°44'0 0.0
2018-Apr-18 22:57N 63°06' E 007°44'0 0.0
2018-Apr-18 22:30N 63°06' E 007°44'0 0.0
2018-Apr-18 22:00N 63°06' E 007°44'0 0.0
2018-Apr-18 21:30N 63°06' E 007°44'0 0.0
2018-Apr-18 21:00N 63°06' E 007°44'0 0.0
2018-Apr-18 20:30N 63°06' E 007°44'0 0.0
2018-Apr-18 20:00N 63°06' E 007°44'0 0.0
2018-Apr-18 19:30N 63°06' E 007°44'0 0.0
2018-Apr-18 19:00N 63°06' E 007°44'0 0.0
2018-Apr-18 18:29N 63°06' E 007°44'0 0.0
2018-Apr-18 18:00N 63°06' E 007°44'0 0.0
2018-Apr-18 17:30N 63°06' E 007°44'0 0.0
2018-Apr-18 16:59N 63°06' E 007°44'0 0.0
2018-Apr-18 16:28N 63°06' E 007°44'0 0.0
2018-Apr-18 16:00N 63°06' E 007°44'0 0.0
2018-Apr-18 15:30N 63°06' E 007°44'0 0.0
2018-Apr-18 15:00N 63°06' E 007°44'0 0.0
2018-Apr-18 14:30N 63°06' E 007°44'0 0.0
2018-Apr-18 14:00N 63°06' E 007°44'0 0.0
2018-Apr-18 13:30N 63°06' E 007°44'2 4.5
2018-Apr-18 13:00N 63°04' E 007°42'1 2.2
2018-Apr-18 12:30N 63°03' E 007°42'0 0.0
2018-Apr-18 12:00N 63°03' E 007°42'0 0.0
2018-Apr-18 11:30N 63°03' E 007°42'0 0.0
2018-Apr-18 11:00N 63°03' E 007°42'0 0.0
2018-Apr-18 10:30N 63°03' E 007°42'1 2.1
2018-Apr-18 10:00N 63°04' E 007°42'2 4.6
2018-Apr-18 09:30N 63°06' E 007°44'0 0.0
2018-Apr-18 09:00N 63°06' E 007°44'0 0.0
2018-Apr-18 08:30N 63°06' E 007°44'0 0.0
2018-Apr-18 07:59N 63°06' E 007°44'0 0.0
2018-Apr-18 07:30N 63°06' E 007°44'0 0.0
2018-Apr-18 07:00N 63°06' E 007°44'0 0.0
2018-Apr-18 06:30N 63°06' E 007°44'0 0.0
2018-Apr-18 06:00N 63°06' E 007°44'0 0.0
2018-Apr-18 05:30N 63°06' E 007°44'0 0.0
2018-Apr-18 05:00N 63°06' E 007°44'0 0.0
2018-Apr-18 04:30N 63°06' E 007°44'0 0.0
2018-Apr-18 03:58N 63°06' E 007°44'0 0.0
2018-Apr-18 03:30N 63°06' E 007°44'0 0.0
2018-Apr-18 03:00N 63°06' E 007°44'0 0.0
2018-Apr-18 02:30N 63°06' E 007°44'0 0.0
2018-Apr-18 01:59N 63°06' E 007°44'0 0.0
2018-Apr-18 01:30N 63°06' E 007°44'0 0.0
2018-Apr-18 01:00N 63°06' E 007°44'0 0.0
2018-Apr-18 00:27N 63°06' E 007°44'0 0.0
2018-Apr-18 00:00N 63°06' E 007°44'0 0.0
2018-Apr-17 23:30N 63°06' E 007°44'0 0.0
2018-Apr-17 22:58N 63°06' E 007°44'0 0.0
2018-Apr-17 22:30N 63°06' E 007°44'0 0.0
2018-Apr-17 21:58N 63°06' E 007°44'0 0.0
2018-Apr-17 21:30N 63°06' E 007°44'0 0.0
2018-Apr-17 21:00N 63°06' E 007°44'0 0.0
2018-Apr-17 20:30N 63°06' E 007°44'0 0.0
2018-Apr-17 20:00N 63°06' E 007°44'0 0.0
2018-Apr-17 19:30N 63°06' E 007°44'0 0.0
2018-Apr-17 19:00N 63°06' E 007°44'0 0.0
2018-Apr-17 18:30N 63°06' E 007°44'0 0.0
2018-Apr-17 18:00N 63°06' E 007°44'0 0.0
2018-Apr-17 17:30N 63°06' E 007°44'0 0.0
2018-Apr-17 17:00N 63°06' E 007°44'0 0.0
2018-Apr-17 16:30N 63°06' E 007°44'0 0.0
2018-Apr-17 15:59N 63°06' E 007°44'0 0.0
2018-Apr-17 15:29N 63°06' E 007°44'0 0.0
2018-Apr-17 15:00N 63°06' E 007°44'0 0.0
2018-Apr-17 14:30N 63°06' E 007°44'0 0.0
2018-Apr-17 14:00N 63°06' E 007°44'0 0.0
2018-Apr-17 13:30N 63°06' E 007°44'0 0.0
2018-Apr-17 13:00N 63°06' E 007°44'0 0.0
2018-Apr-17 12:30N 63°06' E 007°44'0 0.0
2018-Apr-17 12:00N 63°06' E 007°44'0 0.0
2018-Apr-17 11:30N 63°06' E 007°44'0 0.0
2018-Apr-17 11:00N 63°06' E 007°44'0 0.0
2018-Apr-17 10:30N 63°06' E 007°44'0 0.0
2018-Apr-17 10:00N 63°06' E 007°44'0 0.0
2018-Apr-17 09:30N 63°06' E 007°44'0 0.0
2018-Apr-17 09:00N 63°06' E 007°44'0 0.0
2018-Apr-17 08:30N 63°06' E 007°44'0 0.0
2018-Apr-17 08:00N 63°06' E 007°44'0 0.0
2018-Apr-17 07:30N 63°06' E 007°44'0 0.0
2018-Apr-17 06:59N 63°06' E 007°44'0 0.0
2018-Apr-17 06:30N 63°06' E 007°44'0 0.0
2018-Apr-17 05:59N 63°06' E 007°44'0 0.0
2018-Apr-17 05:30N 63°06' E 007°44'0 0.0
2018-Apr-17 05:00N 63°06' E 007°44'0 0.0
2018-Apr-17 04:30N 63°06' E 007°44'0 0.0
2018-Apr-17 04:00N 63°06' E 007°44'0 0.0
2018-Apr-17 03:30N 63°06' E 007°44'0 0.0
2018-Apr-17 03:00N 63°06' E 007°44'0 0.0
2018-Apr-17 02:30N 63°06' E 007°44'0 0.0
2018-Apr-17 02:00N 63°06' E 007°44'0 0.0
2018-Apr-17 01:30N 63°06' E 007°44'0 0.0
2018-Apr-17 00:59N 63°06' E 007°44'0 0.0
2018-Apr-17 00:30N 63°06' E 007°44'0 0.0
2018-Apr-16 23:57N 63°06' E 007°44'0 0.0
2018-Apr-16 23:30N 63°06' E 007°44'0 0.0
2018-Apr-16 23:00N 63°06' E 007°44'0 0.0
2018-Apr-16 22:30N 63°06' E 007°44'0 0.0
2018-Apr-16 22:00N 63°06' E 007°44'0 0.0
2018-Apr-16 21:28N 63°06' E 007°44'0 0.0
2018-Apr-16 21:00N 63°06' E 007°44'0 0.0
2018-Apr-16 20:30N 63°06' E 007°44'0 0.0
2018-Apr-16 20:00N 63°06' E 007°44'0 0.0
2018-Apr-16 19:30N 63°06' E 007°44'0 0.0
2018-Apr-16 18:59N 63°06' E 007°44'0 0.0
2018-Apr-16 18:30N 63°06' E 007°44'0 0.0
2018-Apr-16 18:00N 63°06' E 007°44'0 0.0
2018-Apr-16 17:30N 63°06' E 007°44'0 0.0
2018-Apr-16 16:57N 63°06' E 007°44'0 0.0
2018-Apr-16 16:26N 63°06' E 007°44'0 0.0
2018-Apr-16 16:00N 63°06' E 007°44'0 0.0
2018-Apr-16 15:30N 63°06' E 007°44'0 0.0
2018-Apr-16 15:00N 63°06' E 007°44'0 0.0
2018-Apr-16 14:29N 63°06' E 007°44'0 0.0
2018-Apr-16 14:00N 63°06' E 007°44'0 0.0
2018-Apr-16 13:30N 63°06' E 007°44'0 0.0
2018-Apr-16 13:00N 63°06' E 007°44'0 0.0
2018-Apr-16 12:30N 63°06' E 007°44'0 0.0
2018-Apr-16 12:00N 63°06' E 007°44'0 0.0
2018-Apr-16 11:30N 63°06' E 007°44'0 0.0
2018-Apr-16 10:59N 63°06' E 007°44'0 0.0
2018-Apr-16 10:28N 63°06' E 007°44'0 0.0
2018-Apr-16 10:00N 63°06' E 007°44'0 0.0
2018-Apr-16 09:29N 63°06' E 007°44'0 0.0
2018-Apr-16 09:00N 63°06' E 007°44'0 0.0
2018-Apr-16 08:30N 63°06' E 007°44'0 0.0
2018-Apr-16 08:00N 63°06' E 007°44'0 0.0
2018-Apr-16 07:30N 63°06' E 007°44'0 0.0
2018-Apr-16 07:00N 63°06' E 007°44'0 0.0
2018-Apr-16 06:30N 63°06' E 007°44'0 0.0
2018-Apr-16 06:00N 63°06' E 007°44'0 0.0
2018-Apr-16 05:30N 63°06' E 007°44'0 0.0
2018-Apr-16 05:00N 63°06' E 007°44'0 0.0
2018-Apr-16 04:30N 63°06' E 007°44'0 0.0
2018-Apr-16 04:00N 63°06' E 007°44'0 0.0
2018-Apr-16 03:30N 63°06' E 007°44'0 0.0
2018-Apr-16 03:00N 63°06' E 007°44'0 0.0
2018-Apr-16 02:28N 63°06' E 007°44'0 0.0
2018-Apr-16 02:00N 63°06' E 007°44'0 0.0
2018-Apr-16 01:30N 63°06' E 007°44'0 0.0
2018-Apr-16 01:00N 63°06' E 007°44'0 0.0
2018-Apr-16 00:30N 63°06' E 007°44'0 0.0
2018-Apr-16 00:00N 63°06' E 007°44'0 0.0
2018-Apr-15 23:30N 63°06' E 007°44'0 0.0
2018-Apr-15 23:00N 63°06' E 007°44'0 0.0
2018-Apr-15 22:30N 63°06' E 007°44'0 0.0
2018-Apr-15 22:00N 63°06' E 007°44'0 0.0
2018-Apr-15 21:30N 63°06' E 007°44'0 0.0
2018-Apr-15 21:00N 63°06' E 007°44'0 0.0
2018-Apr-15 20:30N 63°06' E 007°44'0 0.0
2018-Apr-15 20:00N 63°06' E 007°44'0 0.0
2018-Apr-15 19:30N 63°06' E 007°44'0 0.0
2018-Apr-15 19:00N 63°06' E 007°44'0 0.0
2018-Apr-15 18:30N 63°06' E 007°44'0 0.0
2018-Apr-15 18:00N 63°06' E 007°44'0 0.0
2018-Apr-15 17:30N 63°06' E 007°44'0 0.0
2018-Apr-15 17:00N 63°06' E 007°44'0 0.0
2018-Apr-15 16:27N 63°06' E 007°44'0 0.0
2018-Apr-15 16:00N 63°06' E 007°44'0 0.0
2018-Apr-15 15:30N 63°06' E 007°44'0 0.0
2018-Apr-15 15:00N 63°06' E 007°44'0 0.0
2018-Apr-15 14:30N 63°06' E 007°44'0 0.0
2018-Apr-15 14:00N 63°06' E 007°44'0 0.0
2018-Apr-15 13:30N 63°06' E 007°44'0 0.0
2018-Apr-15 13:00N 63°06' E 007°44'0 0.0
2018-Apr-15 12:30N 63°06' E 007°44'0 0.0
2018-Apr-15 12:00N 63°06' E 007°44'0 0.0
2018-Apr-15 11:30N 63°06' E 007°44'0 0.0
2018-Apr-15 10:59N 63°06' E 007°44'0 0.0
2018-Apr-15 10:28N 63°06' E 007°44'0 0.0
2018-Apr-15 10:00N 63°06' E 007°44'0 0.0
2018-Apr-15 09:30N 63°06' E 007°44'0 0.0
2018-Apr-15 09:00N 63°06' E 007°44'0 0.0
2018-Apr-15 08:30N 63°06' E 007°44'0 0.0
2018-Apr-15 07:57N 63°06' E 007°44'0 0.0
2018-Apr-15 07:30N 63°06' E 007°44'0 0.0
2018-Apr-15 07:00N 63°06' E 007°44'0 0.0
2018-Apr-15 06:30N 63°06' E 007°44'0 0.0
2018-Apr-15 05:59N 63°06' E 007°44'0 0.0
2018-Apr-15 05:30N 63°06' E 007°44'0 0.0
2018-Apr-15 05:00N 63°06' E 007°44'0 0.0
2018-Apr-15 04:29N 63°06' E 007°44'0 0.0
2018-Apr-15 03:58N 63°06' E 007°44'0 0.0
2018-Apr-15 03:30N 63°06' E 007°44'0 0.0
2018-Apr-15 02:58N 63°06' E 007°44'0 0.0
2018-Apr-15 02:30N 63°06' E 007°44'0 0.0
2018-Apr-15 02:00N 63°06' E 007°44'0 0.0
2018-Apr-15 01:30N 63°06' E 007°44'0 0.0
2018-Apr-15 01:00N 63°06' E 007°44'0 0.0
2018-Apr-15 00:30N 63°06' E 007°44'0 0.0
2018-Apr-15 00:00N 63°06' E 007°44'0 0.0
2018-Apr-14 23:30N 63°06' E 007°44'0 0.0
2018-Apr-14 23:00N 63°06' E 007°44'0 0.0
2018-Apr-14 22:30N 63°06' E 007°44'0 0.0
2018-Apr-14 22:00N 63°06' E 007°44'0 0.0
2018-Apr-14 21:30N 63°06' E 007°44'0 0.0
2018-Apr-14 20:59N 63°06' E 007°44'0 0.0
2018-Apr-14 20:30N 63°06' E 007°44'0 0.0
2018-Apr-14 20:00N 63°06' E 007°44'0 0.0
2018-Apr-14 19:30N 63°06' E 007°44'0 0.0
2018-Apr-14 19:00N 63°06' E 007°44'0 0.0
2018-Apr-14 18:30N 63°06' E 007°44'0 0.0
2018-Apr-14 18:00N 63°06' E 007°44'0 0.0
2018-Apr-14 17:30N 63°06' E 007°44'0 0.0
2018-Apr-14 17:00N 63°06' E 007°44'0 0.0
2018-Apr-14 16:30N 63°06' E 007°44'0 0.0
2018-Apr-14 15:59N 63°06' E 007°44'0 0.0
2018-Apr-14 15:30N 63°06' E 007°44'0 0.0
2018-Apr-14 15:00N 63°06' E 007°44'0 0.0
2018-Apr-14 14:30N 63°06' E 007°44'0 0.0
2018-Apr-14 14:00N 63°06' E 007°44'0 0.0
2018-Apr-14 13:30N 63°06' E 007°44'0 0.0
2018-Apr-14 13:00N 63°06' E 007°44'0 0.0
2018-Apr-14 12:30N 63°06' E 007°44'0 0.0
2018-Apr-14 11:59N 63°06' E 007°44'0 0.0
2018-Apr-14 11:30N 63°06' E 007°44'0 0.0
2018-Apr-14 11:00N 63°06' E 007°44'0 0.0
2018-Apr-14 10:28N 63°06' E 007°44'0 0.0
2018-Apr-14 10:00N 63°06' E 007°44'0 0.0
2018-Apr-14 09:30N 63°06' E 007°44'0 0.0
2018-Apr-14 09:00N 63°06' E 007°44'0 0.0
2018-Apr-14 08:30N 63°06' E 007°44'0 0.0
2018-Apr-14 08:00N 63°06' E 007°44'0 0.0
2018-Apr-14 07:30N 63°06' E 007°44'0 0.0
2018-Apr-14 07:00N 63°06' E 007°44'0 0.0
2018-Apr-14 06:30N 63°06' E 007°44'0 0.0
2018-Apr-14 06:00N 63°06' E 007°44'0 0.0
2018-Apr-14 05:30N 63°06' E 007°44'0 0.0
2018-Apr-14 05:00N 63°06' E 007°44'0 0.0
2018-Apr-14 04:27N 63°06' E 007°44'0 0.0
2018-Apr-14 03:59N 63°06' E 007°44'0 0.0
2018-Apr-14 03:30N 63°06' E 007°44'0 0.0
2018-Apr-14 03:00N 63°06' E 007°44'0 0.0
2018-Apr-14 02:30N 63°06' E 007°44'0 0.0
2018-Apr-14 01:59N 63°06' E 007°44'0 0.0
2018-Apr-14 01:27N 63°06' E 007°44'0 0.0
2018-Apr-14 01:00N 63°06' E 007°44'0 0.0
2018-Apr-14 00:30N 63°06' E 007°44'0 0.0
2018-Apr-14 00:00N 63°06' E 007°44'0 0.0
2018-Apr-13 23:30N 63°06' E 007°44'0 0.0
2018-Apr-13 23:00N 63°06' E 007°44'0 0.0
2018-Apr-13 22:30N 63°06' E 007°44'0 0.0
2018-Apr-13 22:00N 63°06' E 007°44'0 0.0
2018-Apr-13 21:30N 63°06' E 007°44'0 0.0
2018-Apr-13 21:00N 63°06' E 007°44'0 0.0
2018-Apr-13 20:30N 63°06' E 007°44'0 0.0
2018-Apr-13 20:00N 63°06' E 007°44'0 0.0
2018-Apr-13 19:30N 63°06' E 007°44'0 0.0
2018-Apr-13 19:00N 63°06' E 007°44'0 0.0
2018-Apr-13 18:30N 63°06' E 007°44'0 0.0
2018-Apr-13 18:00N 63°06' E 007°44'0 0.0
2018-Apr-13 17:30N 63°06' E 007°44'0 0.0
2018-Apr-13 16:59N 63°06' E 007°44'0 0.0
2018-Apr-13 16:28N 63°06' E 007°44'0 0.0
2018-Apr-13 16:00N 63°06' E 007°44'0 0.0
2018-Apr-13 15:30N 63°06' E 007°44'0 0.0
2018-Apr-13 15:00N 63°06' E 007°44'0 0.0
2018-Apr-13 14:30N 63°06' E 007°44'0 0.0
2018-Apr-13 14:00N 63°06' E 007°44'0 0.0
2018-Apr-13 13:30N 63°06' E 007°44'0 0.0
2018-Apr-13 13:00N 63°06' E 007°44'0 0.0
2018-Apr-13 12:28N 63°06' E 007°44'0 0.0
2018-Apr-13 12:00N 63°06' E 007°44'0 0.0
2018-Apr-13 11:30N 63°06' E 007°44'0 0.0
2018-Apr-13 11:00N 63°06' E 007°44'0 0.0
2018-Apr-13 10:25N 63°06' E 007°44'0 0.0
2018-Apr-13 10:00N 63°06' E 007°44'0 0.0
2018-Apr-13 09:30N 63°06' E 007°44'0 0.0
2018-Apr-13 09:00N 63°06' E 007°44'0 0.0
2018-Apr-13 08:30N 63°06' E 007°44'0 0.0
2018-Apr-13 08:00N 63°06' E 007°44'0 0.0
2018-Apr-13 07:30N 63°06' E 007°44'0 0.0
2018-Apr-13 07:00N 63°06' E 007°44'0 0.0
2018-Apr-13 06:30N 63°06' E 007°44'0 0.0
2018-Apr-13 06:00N 63°06' E 007°44'0 0.0
2018-Apr-13 05:28N 63°06' E 007°44'0 0.0
2018-Apr-13 05:00N 63°06' E 007°44'0 0.0
2018-Apr-13 04:30N 63°06' E 007°44'0 0.0
2018-Apr-13 04:00N 63°06' E 007°44'0 0.0
2018-Apr-13 03:29N 63°06' E 007°44'0 0.0
2018-Apr-13 03:00N 63°06' E 007°44'  

Dump ship's entire track history